sensor_id;sensor_type;location;lat;lon;timestamp;P1;durP1;ratioP1;P2;durP2;ratioP2
51288;SDS011;37372;52.294;5.152;2023-04-24T00:04:23;7.28;;;3.47;;
51288;SDS011;37372;52.294;5.152;2023-04-24T00:06:51;6.15;;;3.13;;
51288;SDS011;37372;52.294;5.152;2023-04-24T00:09:24;5.88;;;3.20;;
51288;SDS011;37372;52.294;5.152;2023-04-24T00:11:50;4.45;;;3.28;;
51288;SDS011;37372;52.294;5.152;2023-04-24T00:14:16;7.65;;;3.28;;
51288;SDS011;37372;52.294;5.152;2023-04-24T00:16:46;7.35;;;3.78;;
51288;SDS011;37372;52.294;5.152;2023-04-24T00:19:24;4.28;;;2.67;;
51288;SDS011;37372;52.294;5.152;2023-04-24T00:22:03;5.05;;;2.58;;
51288;SDS011;37372;52.294;5.152;2023-04-24T00:24:28;3.45;;;2.05;;
51288;SDS011;37372;52.294;5.152;2023-04-24T00:26:57;2.63;;;1.38;;
51288;SDS011;37372;52.294;5.152;2023-04-24T00:29:22;2.47;;;1.35;;
51288;SDS011;37372;52.294;5.152;2023-04-24T00:31:51;1.45;;;1.10;;
51288;SDS011;37372;52.294;5.152;2023-04-24T00:34:16;1.10;;;0.70;;
51288;SDS011;37372;52.294;5.152;2023-04-24T00:36:52;2.88;;;1.00;;
51288;SDS011;37372;52.294;5.152;2023-04-24T00:39:18;1.52;;;0.70;;
51288;SDS011;37372;52.294;5.152;2023-04-24T00:41:47;1.50;;;0.52;;
51288;SDS011;37372;52.294;5.152;2023-04-24T00:44:33;3.92;;;0.43;;
51288;SDS011;37372;52.294;5.152;2023-04-24T00:46:59;2.65;;;0.60;;
51288;SDS011;37372;52.294;5.152;2023-04-24T00:49:32;2.45;;;0.80;;
51288;SDS011;37372;52.294;5.152;2023-04-24T00:52:06;7.30;;;1.95;;
51288;SDS011;37372;52.294;5.152;2023-04-24T00:54:49;8.27;;;4.00;;
51288;SDS011;37372;52.294;5.152;2023-04-24T00:57:17;10.02;;;6.00;;
51288;SDS011;37372;52.294;5.152;2023-04-24T00:59:42;12.98;;;7.32;;
51288;SDS011;37372;52.294;5.152;2023-04-24T01:02:09;9.27;;;6.25;;
51288;SDS011;37372;52.294;5.152;2023-04-24T01:04:36;6.20;;;3.03;;
51288;SDS011;37372;52.294;5.152;2023-04-24T01:07:02;5.45;;;2.55;;
51288;SDS011;37372;52.294;5.152;2023-04-24T01:09:29;1.92;;;0.85;;
51288;SDS011;37372;52.294;5.152;2023-04-24T01:11:55;3.53;;;0.75;;
51288;SDS011;37372;52.294;5.152;2023-04-24T01:14:21;2.83;;;1.00;;
51288;SDS011;37372;52.294;5.152;2023-04-24T01:16:58;2.63;;;1.00;;
51288;SDS011;37372;52.294;5.152;2023-04-24T01:19:37;3.83;;;0.98;;
51288;SDS011;37372;52.294;5.152;2023-04-24T01:24:52;1.67;;;0.75;;
51288;SDS011;37372;52.294;5.152;2023-04-24T01:27:18;2.63;;;0.93;;
51288;SDS011;37372;52.294;5.152;2023-04-24T01:29:47;2.15;;;0.60;;
51288;SDS011;37372;52.294;5.152;2023-04-24T01:32:17;1.92;;;0.90;;
51288;SDS011;37372;52.294;5.152;2023-04-24T01:34:56;2.65;;;0.70;;
51288;SDS011;37372;52.294;5.152;2023-04-24T01:37:22;2.80;;;0.75;;
51288;SDS011;37372;52.294;5.152;2023-04-24T01:39:48;1.10;;;0.68;;
51288;SDS011;37372;52.294;5.152;2023-04-24T01:42:13;4.15;;;0.82;;
51288;SDS011;37372;52.294;5.152;2023-04-24T01:44:39;3.40;;;1.02;;
51288;SDS011;37372;52.294;5.152;2023-04-24T01:47:09;6.43;;;1.30;;
51288;SDS011;37372;52.294;5.152;2023-04-24T01:49:38;3.30;;;1.40;;
51288;SDS011;37372;52.294;5.152;2023-04-24T01:52:05;4.43;;;1.58;;
51288;SDS011;37372;52.294;5.152;2023-04-24T01:54:39;2.55;;;1.67;;
51288;SDS011;37372;52.294;5.152;2023-04-24T01:57:05;2.85;;;1.70;;
51288;SDS011;37372;52.294;5.152;2023-04-24T01:59:39;4.25;;;2.00;;
51288;SDS011;37372;52.294;5.152;2023-04-24T02:02:17;3.15;;;1.27;;
51288;SDS011;37372;52.294;5.152;2023-04-24T02:04:56;2.47;;;0.90;;
51288;SDS011;37372;52.294;5.152;2023-04-24T02:07:22;1.85;;;0.68;;
51288;SDS011;37372;52.294;5.152;2023-04-24T02:09:51;1.25;;;0.57;;
51288;SDS011;37372;52.294;5.152;2023-04-24T02:12:20;5.10;;;0.75;;
51288;SDS011;37372;52.294;5.152;2023-04-24T02:14:55;0.95;;;0.40;;
51288;SDS011;37372;52.294;5.152;2023-04-24T02:20:08;2.38;;;0.60;;
51288;SDS011;37372;52.294;5.152;2023-04-24T02:25:25;2.50;;;0.73;;
51288;SDS011;37372;52.294;5.152;2023-04-24T02:27:58;2.55;;;0.50;;
51288;SDS011;37372;52.294;5.152;2023-04-24T02:30:23;0.70;;;0.40;;
51288;SDS011;37372;52.294;5.152;2023-04-24T02:32:55;1.70;;;0.40;;
51288;SDS011;37372;52.294;5.152;2023-04-24T02:35:21;1.88;;;0.90;;
51288;SDS011;37372;52.294;5.152;2023-04-24T02:37:47;0.55;;;0.38;;
51288;SDS011;37372;52.294;5.152;2023-04-24T02:40:20;0.82;;;0.45;;
51288;SDS011;37372;52.294;5.152;2023-04-24T02:42:45;0.60;;;0.60;;
51288;SDS011;37372;52.294;5.152;2023-04-24T02:45:11;0.73;;;0.40;;
51288;SDS011;37372;52.294;5.152;2023-04-24T02:47:40;2.28;;;0.75;;
51288;SDS011;37372;52.294;5.152;2023-04-24T02:50:07;1.38;;;0.52;;
51288;SDS011;37372;52.294;5.152;2023-04-24T02:52:41;0.77;;;0.52;;
51288;SDS011;37372;52.294;5.152;2023-04-24T02:55:09;1.27;;;0.52;;
51288;SDS011;37372;52.294;5.152;2023-04-24T02:57:36;1.15;;;0.68;;
51288;SDS011;37372;52.294;5.152;2023-04-24T03:00:04;3.65;;;1.17;;
51288;SDS011;37372;52.294;5.152;2023-04-24T03:02:41;1.50;;;0.60;;
51288;SDS011;37372;52.294;5.152;2023-04-24T03:05:16;1.92;;;0.90;;
51288;SDS011;37372;52.294;5.152;2023-04-24T03:07:42;1.13;;;0.60;;
51288;SDS011;37372;52.294;5.152;2023-04-24T03:10:13;1.08;;;0.50;;
51288;SDS011;37372;52.294;5.152;2023-04-24T03:12:52;1.50;;;0.75;;
51288;SDS011;37372;52.294;5.152;2023-04-24T03:15:36;1.02;;;0.63;;
51288;SDS011;37372;52.294;5.152;2023-04-24T03:18:05;2.55;;;0.88;;
51288;SDS011;37372;52.294;5.152;2023-04-24T03:20:30;1.73;;;0.70;;
51288;SDS011;37372;52.294;5.152;2023-04-24T03:22:56;3.28;;;1.00;;
51288;SDS011;37372;52.294;5.152;2023-04-24T03:25:22;2.08;;;0.88;;
51288;SDS011;37372;52.294;5.152;2023-04-24T03:27:47;1.90;;;1.00;;
51288;SDS011;37372;52.294;5.152;2023-04-24T03:30:12;2.65;;;1.17;;
51288;SDS011;37372;52.294;5.152;2023-04-24T03:32:38;3.10;;;1.02;;
51288;SDS011;37372;52.294;5.152;2023-04-24T03:35:05;4.35;;;1.15;;
51288;SDS011;37372;52.294;5.152;2023-04-24T03:40:40;2.40;;;0.85;;
51288;SDS011;37372;52.294;5.152;2023-04-24T03:43:09;3.60;;;0.98;;
51288;SDS011;37372;52.294;5.152;2023-04-24T03:45:37;1.83;;;1.00;;
51288;SDS011;37372;52.294;5.152;2023-04-24T03:48:06;1.85;;;0.93;;
51288;SDS011;37372;52.294;5.152;2023-04-24T03:50:40;2.10;;;1.00;;
51288;SDS011;37372;52.294;5.152;2023-04-24T03:53:07;3.25;;;1.27;;
51288;SDS011;37372;52.294;5.152;2023-04-24T03:55:33;5.93;;;1.25;;
51288;SDS011;37372;52.294;5.152;2023-04-24T03:57:58;3.20;;;1.25;;
51288;SDS011;37372;52.294;5.152;2023-04-24T04:00:24;3.90;;;1.08;;
51288;SDS011;37372;52.294;5.152;2023-04-24T04:02:53;2.67;;;1.10;;
51288;SDS011;37372;52.294;5.152;2023-04-24T04:05:18;3.92;;;1.00;;
51288;SDS011;37372;52.294;5.152;2023-04-24T04:07:50;2.03;;;1.05;;
51288;SDS011;37372;52.294;5.152;2023-04-24T04:10:16;2.45;;;1.27;;
51288;SDS011;37372;52.294;5.152;2023-04-24T04:12:42;2.58;;;1.30;;
51288;SDS011;37372;52.294;5.152;2023-04-24T04:15:14;3.53;;;1.65;;
51288;SDS011;37372;52.294;5.152;2023-04-24T04:17:40;2.70;;;1.00;;
51288;SDS011;37372;52.294;5.152;2023-04-24T04:20:09;2.55;;;1.00;;
51288;SDS011;37372;52.294;5.152;2023-04-24T04:22:36;2.92;;;1.05;;
51288;SDS011;37372;52.294;5.152;2023-04-24T04:25:02;3.67;;;1.10;;
51288;SDS011;37372;52.294;5.152;2023-04-24T04:27:30;3.88;;;1.30;;
51288;SDS011;37372;52.294;5.152;2023-04-24T04:29:59;3.00;;;1.10;;
51288;SDS011;37372;52.294;5.152;2023-04-24T04:32:34;2.78;;;0.90;;
51288;SDS011;37372;52.294;5.152;2023-04-24T04:35:03;2.47;;;1.00;;
51288;SDS011;37372;52.294;5.152;2023-04-24T04:37:34;2.20;;;1.05;;
51288;SDS011;37372;52.294;5.152;2023-04-24T04:40:09;1.95;;;0.82;;
51288;SDS011;37372;52.294;5.152;2023-04-24T04:42:37;3.38;;;1.17;;
51288;SDS011;37372;52.294;5.152;2023-04-24T04:45:09;2.92;;;1.20;;
51288;SDS011;37372;52.294;5.152;2023-04-24T04:47:45;4.40;;;1.45;;
51288;SDS011;37372;52.294;5.152;2023-04-24T04:50:10;3.78;;;1.02;;
51288;SDS011;37372;52.294;5.152;2023-04-24T04:52:36;3.25;;;1.23;;
51288;SDS011;37372;52.294;5.152;2023-04-24T04:55:01;3.38;;;1.38;;
51288;SDS011;37372;52.294;5.152;2023-04-24T04:57:27;3.72;;;1.45;;
51288;SDS011;37372;52.294;5.152;2023-04-24T04:59:53;2.28;;;1.30;;
51288;SDS011;37372;52.294;5.152;2023-04-24T05:02:22;4.88;;;1.63;;
51288;SDS011;37372;52.294;5.152;2023-04-24T05:04:48;5.38;;;1.60;;
51288;SDS011;37372;52.294;5.152;2023-04-24T05:07:19;3.60;;;1.27;;
51288;SDS011;37372;52.294;5.152;2023-04-24T05:09:49;2.92;;;1.27;;
51288;SDS011;37372;52.294;5.152;2023-04-24T05:12:17;3.63;;;1.80;;
51288;SDS011;37372;52.294;5.152;2023-04-24T05:14:46;3.40;;;1.60;;
51288;SDS011;37372;52.294;5.152;2023-04-24T05:17:11;4.88;;;1.35;;
51288;SDS011;37372;52.294;5.152;2023-04-24T05:19:37;7.10;;;1.65;;
51288;SDS011;37372;52.294;5.152;2023-04-24T05:22:04;3.67;;;1.13;;
51288;SDS011;37372;52.294;5.152;2023-04-24T05:24:35;3.50;;;1.67;;
51288;SDS011;37372;52.294;5.152;2023-04-24T05:27:02;2.03;;;0.90;;
51288;SDS011;37372;52.294;5.152;2023-04-24T05:29:29;4.35;;;1.73;;
51288;SDS011;37372;52.294;5.152;2023-04-24T05:31:58;3.78;;;1.13;;
51288;SDS011;37372;52.294;5.152;2023-04-24T05:34:29;4.38;;;1.38;;
51288;SDS011;37372;52.294;5.152;2023-04-24T05:36:55;3.92;;;1.30;;
51288;SDS011;37372;52.294;5.152;2023-04-24T05:39:20;1.98;;;1.08;;
51288;SDS011;37372;52.294;5.152;2023-04-24T05:41:50;4.18;;;1.50;;
51288;SDS011;37372;52.294;5.152;2023-04-24T05:44:16;5.22;;;1.42;;
51288;SDS011;37372;52.294;5.152;2023-04-24T05:46:42;9.75;;;1.67;;
51288;SDS011;37372;52.294;5.152;2023-04-24T05:49:08;4.20;;;1.23;;
51288;SDS011;37372;52.294;5.152;2023-04-24T05:51:34;2.60;;;1.25;;
51288;SDS011;37372;52.294;5.152;2023-04-24T05:54:00;4.45;;;1.48;;
51288;SDS011;37372;52.294;5.152;2023-04-24T05:56:26;8.60;;;2.83;;
51288;SDS011;37372;52.294;5.152;2023-04-24T05:58:55;7.55;;;3.22;;
51288;SDS011;37372;52.294;5.152;2023-04-24T06:01:24;19.85;;;10.93;;
51288;SDS011;37372;52.294;5.152;2023-04-24T06:03:50;30.08;;;13.77;;
51288;SDS011;37372;52.294;5.152;2023-04-24T06:06:17;32.47;;;14.80;;
51288;SDS011;37372;52.294;5.152;2023-04-24T06:08:44;29.77;;;14.90;;
51288;SDS011;37372;52.294;5.152;2023-04-24T06:11:19;32.58;;;16.20;;
51288;SDS011;37372;52.294;5.152;2023-04-24T06:13:46;38.65;;;16.52;;
51288;SDS011;37372;52.294;5.152;2023-04-24T06:16:11;40.53;;;17.92;;
51288;SDS011;37372;52.294;5.152;2023-04-24T06:18:37;38.47;;;19.02;;
51288;SDS011;37372;52.294;5.152;2023-04-24T06:21:06;42.67;;;19.17;;
51288;SDS011;37372;52.294;5.152;2023-04-24T06:23:33;35.50;;;18.73;;
51288;SDS011;37372;52.294;5.152;2023-04-24T06:26:03;37.55;;;17.75;;
51288;SDS011;37372;52.294;5.152;2023-04-24T06:28:29;34.03;;;17.30;;
51288;SDS011;37372;52.294;5.152;2023-04-24T06:30:54;32.45;;;16.20;;
51288;SDS011;37372;52.294;5.152;2023-04-24T06:33:20;38.63;;;17.98;;
51288;SDS011;37372;52.294;5.152;2023-04-24T06:35:46;41.90;;;18.73;;
51288;SDS011;37372;52.294;5.152;2023-04-24T06:38:12;31.65;;;17.23;;
51288;SDS011;37372;52.294;5.152;2023-04-24T06:40:38;31.92;;;17.25;;
51288;SDS011;37372;52.294;5.152;2023-04-24T06:43:04;35.92;;;17.55;;
51288;SDS011;37372;52.294;5.152;2023-04-24T06:45:29;30.23;;;16.33;;
51288;SDS011;37372;52.294;5.152;2023-04-24T06:47:55;41.42;;;17.05;;
51288;SDS011;37372;52.294;5.152;2023-04-24T06:50:29;22.85;;;14.43;;
51288;SDS011;37372;52.294;5.152;2023-04-24T06:52:59;28.15;;;13.98;;
51288;SDS011;37372;52.294;5.152;2023-04-24T06:55:25;28.33;;;14.10;;
51288;SDS011;37372;52.294;5.152;2023-04-24T06:57:50;36.67;;;16.17;;
51288;SDS011;37372;52.294;5.152;2023-04-24T07:00:25;28.85;;;14.32;;
51288;SDS011;37372;52.294;5.152;2023-04-24T07:02:51;28.58;;;13.90;;
51288;SDS011;37372;52.294;5.152;2023-04-24T07:05:17;31.02;;;13.73;;
51288;SDS011;37372;52.294;5.152;2023-04-24T07:07:53;26.70;;;12.95;;
51288;SDS011;37372;52.294;5.152;2023-04-24T07:10:19;29.85;;;13.02;;
51288;SDS011;37372;52.294;5.152;2023-04-24T07:12:45;30.38;;;14.98;;
51288;SDS011;37372;52.294;5.152;2023-04-24T07:15:12;31.23;;;14.60;;
51288;SDS011;37372;52.294;5.152;2023-04-24T07:17:37;28.30;;;14.93;;
51288;SDS011;37372;52.294;5.152;2023-04-24T07:20:09;23.02;;;12.27;;
51288;SDS011;37372;52.294;5.152;2023-04-24T07:22:37;30.42;;;13.32;;
51288;SDS011;37372;52.294;5.152;2023-04-24T07:25:03;28.45;;;11.90;;
51288;SDS011;37372;52.294;5.152;2023-04-24T07:34:00;25.13;;;12.18;;
51288;SDS011;37372;52.294;5.152;2023-04-24T07:36:26;37.38;;;14.40;;
51288;SDS011;37372;52.294;5.152;2023-04-24T07:39:01;26.85;;;13.10;;
51288;SDS011;37372;52.294;5.152;2023-04-24T07:43:54;21.80;;;11.07;;
51288;SDS011;37372;52.294;5.152;2023-04-24T07:46:20;26.80;;;11.63;;
51288;SDS011;37372;52.294;5.152;2023-04-24T07:48:52;24.77;;;10.77;;
51288;SDS011;37372;52.294;5.152;2023-04-24T07:51:25;38.60;;;10.05;;
51288;SDS011;37372;52.294;5.152;2023-04-24T07:53:54;21.27;;;7.90;;
51288;SDS011;37372;52.294;5.152;2023-04-24T07:56:25;25.15;;;7.68;;
51288;SDS011;37372;52.294;5.152;2023-04-24T07:58:51;34.63;;;8.98;;
51288;SDS011;37372;52.294;5.152;2023-04-24T08:01:29;32.83;;;8.57;;
51288;SDS011;37372;52.294;5.152;2023-04-24T08:03:58;32.60;;;7.55;;
51288;SDS011;37372;52.294;5.152;2023-04-24T08:06:34;32.53;;;7.65;;
51288;SDS011;37372;52.294;5.152;2023-04-24T08:09:00;26.38;;;6.85;;
51288;SDS011;37372;52.294;5.152;2023-04-24T08:11:26;21.27;;;6.82;;
51288;SDS011;37372;52.294;5.152;2023-04-24T08:13:51;18.70;;;4.40;;
51288;SDS011;37372;52.294;5.152;2023-04-24T08:16:24;12.82;;;4.40;;
51288;SDS011;37372;52.294;5.152;2023-04-24T08:18:50;18.42;;;4.65;;
51288;SDS011;37372;52.294;5.152;2023-04-24T08:21:16;15.65;;;5.47;;
51288;SDS011;37372;52.294;5.152;2023-04-24T08:23:46;13.50;;;3.60;;
51288;SDS011;37372;52.294;5.152;2023-04-24T08:26:11;19.67;;;4.30;;
51288;SDS011;37372;52.294;5.152;2023-04-24T08:28:37;16.70;;;4.38;;
51288;SDS011;37372;52.294;5.152;2023-04-24T08:31:03;21.80;;;4.70;;
51288;SDS011;37372;52.294;5.152;2023-04-24T08:33:28;21.10;;;4.93;;
51288;SDS011;37372;52.294;5.152;2023-04-24T08:36:03;21.63;;;4.25;;
51288;SDS011;37372;52.294;5.152;2023-04-24T08:38:33;15.40;;;4.43;;
51288;SDS011;37372;52.294;5.152;2023-04-24T08:41:01;17.98;;;4.93;;
51288;SDS011;37372;52.294;5.152;2023-04-24T08:43:30;25.75;;;7.00;;
51288;SDS011;37372;52.294;5.152;2023-04-24T08:45:59;15.13;;;4.07;;
51288;SDS011;37372;52.294;5.152;2023-04-24T08:48:32;21.75;;;5.60;;
51288;SDS011;37372;52.294;5.152;2023-04-24T08:50:59;20.27;;;4.10;;
51288;SDS011;37372;52.294;5.152;2023-04-24T08:53:26;14.45;;;3.58;;
51288;SDS011;37372;52.294;5.152;2023-04-24T08:55:54;13.82;;;4.20;;
51288;SDS011;37372;52.294;5.152;2023-04-24T08:58:25;14.73;;;3.70;;
51288;SDS011;37372;52.294;5.152;2023-04-24T09:01:09;12.60;;;2.85;;
51288;SDS011;37372;52.294;5.152;2023-04-24T09:03:37;15.32;;;3.95;;
51288;SDS011;37372;52.294;5.152;2023-04-24T09:06:04;12.43;;;2.78;;
51288;SDS011;37372;52.294;5.152;2023-04-24T09:08:32;13.88;;;3.00;;
51288;SDS011;37372;52.294;5.152;2023-04-24T09:11:05;10.15;;;3.10;;
51288;SDS011;37372;52.294;5.152;2023-04-24T09:13:31;15.00;;;3.67;;
51288;SDS011;37372;52.294;5.152;2023-04-24T09:15:58;13.57;;;3.03;;
51288;SDS011;37372;52.294;5.152;2023-04-24T09:18:39;7.82;;;2.40;;
51288;SDS011;37372;52.294;5.152;2023-04-24T09:21:08;14.35;;;2.50;;
51288;SDS011;37372;52.294;5.152;2023-04-24T09:23:40;11.73;;;2.40;;
51288;SDS011;37372;52.294;5.152;2023-04-24T09:26:06;12.35;;;2.83;;
51288;SDS011;37372;52.294;5.152;2023-04-24T09:28:39;16.92;;;5.40;;
51288;SDS011;37372;52.294;5.152;2023-04-24T09:33:39;9.95;;;2.53;;
51288;SDS011;37372;52.294;5.152;2023-04-24T09:36:05;12.52;;;2.05;;
51288;SDS011;37372;52.294;5.152;2023-04-24T09:38:40;13.70;;;3.38;;
51288;SDS011;37372;52.294;5.152;2023-04-24T09:41:06;13.18;;;2.25;;
51288;SDS011;37372;52.294;5.152;2023-04-24T09:43:35;9.25;;;2.58;;
51288;SDS011;37372;52.294;5.152;2023-04-24T09:46:05;10.48;;;2.58;;
51288;SDS011;37372;52.294;5.152;2023-04-24T09:51:36;19.00;;;3.00;;
51288;SDS011;37372;52.294;5.152;2023-04-24T09:54:03;7.07;;;2.20;;
51288;SDS011;37372;52.294;5.152;2023-04-24T09:56:33;10.48;;;2.63;;
51288;SDS011;37372;52.294;5.152;2023-04-24T09:59:06;11.27;;;2.63;;
51288;SDS011;37372;52.294;5.152;2023-04-24T10:01:41;11.82;;;1.90;;
51288;SDS011;37372;52.294;5.152;2023-04-24T10:04:26;12.48;;;2.65;;
51288;SDS011;37372;52.294;5.152;2023-04-24T10:06:59;10.90;;;2.08;;
51288;SDS011;37372;52.294;5.152;2023-04-24T10:09:28;8.77;;;1.70;;
51288;SDS011;37372;52.294;5.152;2023-04-24T10:11:53;7.68;;;1.50;;
51288;SDS011;37372;52.294;5.152;2023-04-24T10:14:23;6.50;;;1.42;;
51288;SDS011;37372;52.294;5.152;2023-04-24T10:16:54;13.10;;;1.73;;
51288;SDS011;37372;52.294;5.152;2023-04-24T10:19:23;7.07;;;1.80;;
51288;SDS011;37372;52.294;5.152;2023-04-24T10:21:55;7.63;;;2.22;;
51288;SDS011;37372;52.294;5.152;2023-04-24T10:24:23;6.32;;;2.25;;
51288;SDS011;37372;52.294;5.152;2023-04-24T10:26:51;6.72;;;1.10;;
51288;SDS011;37372;52.294;5.152;2023-04-24T10:29:18;7.85;;;1.50;;
51288;SDS011;37372;52.294;5.152;2023-04-24T10:31:44;7.18;;;1.08;;
51288;SDS011;37372;52.294;5.152;2023-04-24T10:34:14;8.75;;;1.20;;
51288;SDS011;37372;52.294;5.152;2023-04-24T10:36:43;5.55;;;0.63;;
51288;SDS011;37372;52.294;5.152;2023-04-24T10:39:14;6.50;;;0.90;;
51288;SDS011;37372;52.294;5.152;2023-04-24T10:41:41;1.83;;;0.75;;
51288;SDS011;37372;52.294;5.152;2023-04-24T10:44:08;3.13;;;0.40;;
51288;SDS011;37372;52.294;5.152;2023-04-24T10:46:35;5.43;;;0.80;;
51288;SDS011;37372;52.294;5.152;2023-04-24T10:49:35;4.65;;;0.70;;
51288;SDS011;37372;52.294;5.152;2023-04-24T10:52:02;6.15;;;0.80;;
51288;SDS011;37372;52.294;5.152;2023-04-24T10:54:35;7.32;;;0.90;;
51288;SDS011;37372;52.294;5.152;2023-04-24T10:59:45;1.98;;;0.60;;
51288;SDS011;37372;52.294;5.152;2023-04-24T11:02:14;2.13;;;0.63;;
51288;SDS011;37372;52.294;5.152;2023-04-24T11:04:59;6.95;;;0.70;;
51288;SDS011;37372;52.294;5.152;2023-04-24T11:08:22;1.80;;;0.90;;
51288;SDS011;37372;52.294;5.152;2023-04-24T11:10:39;2.25;;;0.52;;
51288;SDS011;37372;52.294;5.152;2023-04-24T11:13:25;2.40;;;0.50;;
51288;SDS011;37372;52.294;5.152;2023-04-24T11:16:44;5.20;;;0.98;;
51288;SDS011;37372;52.294;5.152;2023-04-24T11:19:18;6.88;;;0.88;;
51288;SDS011;37372;52.294;5.152;2023-04-24T11:21:56;7.05;;;1.38;;
51288;SDS011;37372;52.294;5.152;2023-04-24T11:27:21;7.72;;;0.85;;
51288;SDS011;37372;52.294;5.152;2023-04-24T11:30:08;5.25;;;0.65;;
51288;SDS011;37372;52.294;5.152;2023-04-24T11:32:34;4.85;;;0.65;;
51288;SDS011;37372;52.294;5.152;2023-04-24T11:35:16;4.10;;;0.80;;
51288;SDS011;37372;52.294;5.152;2023-04-24T11:37:44;7.15;;;0.90;;
51288;SDS011;37372;52.294;5.152;2023-04-24T11:40:12;5.03;;;0.75;;
51288;SDS011;37372;52.294;5.152;2023-04-24T11:42:45;5.88;;;0.70;;
51288;SDS011;37372;52.294;5.152;2023-04-24T11:45:13;9.93;;;1.15;;
51288;SDS011;37372;52.294;5.152;2023-04-24T11:47:43;9.57;;;2.80;;
51288;SDS011;37372;52.294;5.152;2023-04-24T11:50:14;6.22;;;0.95;;
51288;SDS011;37372;52.294;5.152;2023-04-24T11:52:42;5.38;;;0.98;;
51288;SDS011;37372;52.294;5.152;2023-04-24T11:57:55;6.00;;;1.17;;
51288;SDS011;37372;52.294;5.152;2023-04-24T12:00:25;4.53;;;0.80;;
51288;SDS011;37372;52.294;5.152;2023-04-24T12:02:50;3.70;;;1.40;;
51288;SDS011;37372;52.294;5.152;2023-04-24T12:05:23;7.13;;;1.00;;
51288;SDS011;37372;52.294;5.152;2023-04-24T12:07:55;4.57;;;1.00;;
51288;SDS011;37372;52.294;5.152;2023-04-24T12:10:22;13.30;;;1.60;;
51288;SDS011;37372;52.294;5.152;2023-04-24T12:12:52;4.75;;;0.80;;
51288;SDS011;37372;52.294;5.152;2023-04-24T12:15:19;5.35;;;0.95;;
51288;SDS011;37372;52.294;5.152;2023-04-24T12:17:57;5.32;;;1.52;;
51288;SDS011;37372;52.294;5.152;2023-04-24T12:22:56;8.95;;;1.58;;
51288;SDS011;37372;52.294;5.152;2023-04-24T12:25:23;9.90;;;2.05;;
51288;SDS011;37372;52.294;5.152;2023-04-24T12:30:43;15.07;;;1.63;;
51288;SDS011;37372;52.294;5.152;2023-04-24T12:33:17;9.48;;;1.65;;
51288;SDS011;37372;52.294;5.152;2023-04-24T12:35:43;16.48;;;3.92;;
51288;SDS011;37372;52.294;5.152;2023-04-24T12:38:10;8.43;;;2.22;;
51288;SDS011;37372;52.294;5.152;2023-04-24T12:40:38;8.10;;;1.98;;
51288;SDS011;37372;52.294;5.152;2023-04-24T12:43:16;5.93;;;1.63;;
51288;SDS011;37372;52.294;5.152;2023-04-24T12:45:48;14.27;;;1.73;;
51288;SDS011;37372;52.294;5.152;2023-04-24T12:48:14;11.23;;;3.35;;
51288;SDS011;37372;52.294;5.152;2023-04-24T12:50:39;17.08;;;3.60;;
51288;SDS011;37372;52.294;5.152;2023-04-24T12:53:05;16.65;;;2.72;;
51288;SDS011;37372;52.294;5.152;2023-04-24T12:55:33;12.27;;;2.30;;
51288;SDS011;37372;52.294;5.152;2023-04-24T12:57:59;13.63;;;2.90;;
51288;SDS011;37372;52.294;5.152;2023-04-24T13:00:24;15.45;;;2.92;;
51288;SDS011;37372;52.294;5.152;2023-04-24T13:02:52;11.73;;;2.03;;
51288;SDS011;37372;52.294;5.152;2023-04-24T13:05:21;11.88;;;2.60;;
51288;SDS011;37372;52.294;5.152;2023-04-24T13:08:03;11.50;;;2.42;;
51288;SDS011;37372;52.294;5.152;2023-04-24T13:10:28;13.10;;;2.67;;
51288;SDS011;37372;52.294;5.152;2023-04-24T13:12:54;10.90;;;2.95;;
51288;SDS011;37372;52.294;5.152;2023-04-24T13:15:22;16.40;;;3.00;;
51288;SDS011;37372;52.294;5.152;2023-04-24T13:17:47;20.50;;;3.72;;
51288;SDS011;37372;52.294;5.152;2023-04-24T13:20:13;14.07;;;2.72;;
51288;SDS011;37372;52.294;5.152;2023-04-24T13:22:38;15.80;;;2.42;;
51288;SDS011;37372;52.294;5.152;2023-04-24T13:25:04;15.43;;;3.63;;
51288;SDS011;37372;52.294;5.152;2023-04-24T13:27:34;10.30;;;2.70;;
51288;SDS011;37372;52.294;5.152;2023-04-24T13:30:17;11.57;;;2.95;;
51288;SDS011;37372;52.294;5.152;2023-04-24T13:32:48;17.27;;;3.45;;
51288;SDS011;37372;52.294;5.152;2023-04-24T13:35:17;8.05;;;2.45;;
51288;SDS011;37372;52.294;5.152;2023-04-24T13:37:43;12.15;;;2.80;;
51288;SDS011;37372;52.294;5.152;2023-04-24T13:40:10;14.85;;;3.15;;
51288;SDS011;37372;52.294;5.152;2023-04-24T13:42:35;13.05;;;2.70;;
51288;SDS011;37372;52.294;5.152;2023-04-24T13:45:01;8.95;;;2.70;;
51288;SDS011;37372;52.294;5.152;2023-04-24T13:47:36;9.10;;;2.67;;
51288;SDS011;37372;52.294;5.152;2023-04-24T13:53:01;8.45;;;2.00;;
51288;SDS011;37372;52.294;5.152;2023-04-24T13:55:27;11.10;;;2.53;;
51288;SDS011;37372;52.294;5.152;2023-04-24T13:57:52;12.00;;;2.97;;
51288;SDS011;37372;52.294;5.152;2023-04-24T14:00:22;14.35;;;3.95;;
51288;SDS011;37372;52.294;5.152;2023-04-24T14:02:59;19.02;;;3.30;;
51288;SDS011;37372;52.294;5.152;2023-04-24T14:05:46;10.25;;;2.58;;
51288;SDS011;37372;52.294;5.152;2023-04-24T14:08:20;8.85;;;2.40;;
51288;SDS011;37372;52.294;5.152;2023-04-24T14:13:47;17.02;;;3.50;;
51288;SDS011;37372;52.294;5.152;2023-04-24T14:16:27;9.93;;;2.08;;
51288;SDS011;37372;52.294;5.152;2023-04-24T14:18:53;11.77;;;4.03;;
51288;SDS011;37372;52.294;5.152;2023-04-24T14:21:23;9.05;;;2.30;;
51288;SDS011;37372;52.294;5.152;2023-04-24T14:23:48;10.57;;;1.98;;
51288;SDS011;37372;52.294;5.152;2023-04-24T14:26:16;6.05;;;2.00;;
51288;SDS011;37372;52.294;5.152;2023-04-24T14:28:42;7.10;;;2.42;;
51288;SDS011;37372;52.294;5.152;2023-04-24T14:31:24;13.73;;;2.45;;
51288;SDS011;37372;52.294;5.152;2023-04-24T14:33:52;8.77;;;2.40;;
51288;SDS011;37372;52.294;5.152;2023-04-24T14:36:27;10.32;;;2.65;;
51288;SDS011;37372;52.294;5.152;2023-04-24T14:39:19;13.05;;;3.15;;
51288;SDS011;37372;52.294;5.152;2023-04-24T14:42:04;13.32;;;2.53;;
51288;SDS011;37372;52.294;5.152;2023-04-24T14:44:42;10.18;;;2.47;;
51288;SDS011;37372;52.294;5.152;2023-04-24T14:47:07;13.90;;;3.78;;
51288;SDS011;37372;52.294;5.152;2023-04-24T14:49:51;10.52;;;2.63;;
51288;SDS011;37372;52.294;5.152;2023-04-24T14:52:21;10.80;;;3.00;;
51288;SDS011;37372;52.294;5.152;2023-04-24T14:54:46;17.00;;;3.30;;
51288;SDS011;37372;52.294;5.152;2023-04-24T14:57:11;14.02;;;4.05;;
51288;SDS011;37372;52.294;5.152;2023-04-24T14:59:49;15.93;;;3.30;;
51288;SDS011;37372;52.294;5.152;2023-04-24T15:02:14;12.43;;;2.88;;
51288;SDS011;37372;52.294;5.152;2023-04-24T15:04:40;14.63;;;4.00;;
51288;SDS011;37372;52.294;5.152;2023-04-24T15:07:27;16.98;;;3.50;;
51288;SDS011;37372;52.294;5.152;2023-04-24T15:09:53;13.02;;;3.90;;
51288;SDS011;37372;52.294;5.152;2023-04-24T15:12:19;8.95;;;2.63;;
51288;SDS011;37372;52.294;5.152;2023-04-24T15:14:45;12.82;;;3.03;;
51288;SDS011;37372;52.294;5.152;2023-04-24T15:17:14;14.35;;;3.63;;
51288;SDS011;37372;52.294;5.152;2023-04-24T15:19:43;19.48;;;4.45;;
51288;SDS011;37372;52.294;5.152;2023-04-24T15:22:17;9.32;;;3.00;;
51288;SDS011;37372;52.294;5.152;2023-04-24T15:24:45;16.20;;;3.00;;
51288;SDS011;37372;52.294;5.152;2023-04-24T15:27:17;14.82;;;4.18;;
51288;SDS011;37372;52.294;5.152;2023-04-24T15:29:50;8.98;;;2.45;;
51288;SDS011;37372;52.294;5.152;2023-04-24T15:32:23;12.68;;;3.30;;
51288;SDS011;37372;52.294;5.152;2023-04-24T15:34:53;15.13;;;3.10;;
51288;SDS011;37372;52.294;5.152;2023-04-24T15:37:18;14.25;;;3.25;;
51288;SDS011;37372;52.294;5.152;2023-04-24T15:40:05;13.35;;;3.10;;
51288;SDS011;37372;52.294;5.152;2023-04-24T15:42:59;12.07;;;3.05;;
51288;SDS011;37372;52.294;5.152;2023-04-24T15:45:25;13.95;;;3.45;;